createdAt,value
2016-10-31T00:00:43.188Z,3.42
2016-10-31T00:01:43.182Z,3.31
2016-10-31T00:02:43.165Z,3.36
2016-10-31T00:03:43.712Z,3.29
2016-10-31T00:04:43.393Z,3.31
2016-10-31T00:05:43.837Z,3.28
2016-10-31T00:06:43.317Z,3.32
2016-10-31T00:07:43.153Z,3.32
2016-10-31T00:08:43.089Z,3.32
2016-10-31T00:09:43.380Z,3.32
2016-10-31T00:10:43.067Z,3.2
2016-10-31T00:11:43.060Z,3.23
2016-10-31T00:13:44.931Z,3.36
2016-10-31T00:14:43.422Z,3.36
2016-10-31T00:15:43.046Z,3.23
2016-10-31T00:16:42.994Z,3.33
2016-10-31T00:17:42.980Z,3.29
2016-10-31T00:18:42.973Z,3.24
2016-10-31T00:19:43.262Z,3.24
2016-10-31T00:20:42.944Z,3.28
2016-10-31T00:21:42.932Z,3.24
2016-10-31T00:22:43.291Z,3.15
2016-10-31T00:23:42.907Z,3.17
2016-10-31T00:24:42.889Z,3.24
2016-10-31T00:25:42.885Z,3.2
2016-10-31T00:26:42.876Z,3.05
2016-10-31T00:27:43.300Z,3.17
2016-10-31T00:28:44.310Z,3.08
2016-10-31T00:29:43.216Z,3.14
2016-10-31T00:30:43.013Z,3.11
2016-10-31T00:31:42.810Z,3.15
2016-10-31T00:32:42.799Z,3.1
2016-10-31T00:33:42.789Z,3.05
2016-10-31T00:34:42.768Z,3.03
2016-10-31T00:35:42.756Z,3.11
2016-10-31T00:36:44.259Z,3.08
2016-10-31T00:38:44.062Z,3.17
2016-10-31T00:39:42.715Z,3.14
2016-10-31T00:40:42.694Z,3.05
2016-10-31T00:41:42.684Z,3.11
2016-10-31T00:42:43.067Z,3.13
2016-10-31T00:43:42.659Z,3.11
2016-10-31T00:44:42.646Z,3.03
2016-10-31T00:45:42.635Z,3.06
2016-10-31T00:46:42.619Z,3.05
2016-10-31T00:47:42.608Z,3.06
2016-10-31T00:48:42.599Z,3.13
2016-10-31T00:49:42.583Z,3.14
2016-10-31T00:50:42.561Z,3
2016-10-31T00:51:42.559Z,3
2016-10-31T00:52:42.545Z,2.92
2016-10-31T00:53:42.531Z,2.99
2016-10-31T00:54:42.515Z,2.89
2016-10-31T00:55:42.814Z,3.02
2016-10-31T00:56:42.790Z,2.93
2016-10-31T00:57:42.478Z,2.95
2016-10-31T00:58:42.466Z,3.08
2016-10-31T00:59:42.455Z,2.96
2016-10-31T01:00:42.446Z,2.95
2016-10-31T01:01:42.432Z,2.96
2016-10-31T01:02:42.411Z,2.97
2016-10-31T01:03:42.407Z,2.95
2016-10-31T01:04:42.394Z,2.93
2016-10-31T01:05:42.378Z,2.96
2016-10-31T01:06:42.360Z,2.93
2016-10-31T01:07:42.356Z,2.97
2016-10-31T01:08:42.335Z,3.06
2016-10-31T01:09:42.329Z,2.97
2016-10-31T01:10:42.325Z,2.93
2016-10-31T01:11:42.299Z,2.99
2016-10-31T01:12:42.286Z,3
2016-10-31T01:13:42.282Z,2.99
2016-10-31T01:14:42.270Z,2.95
2016-10-31T01:15:42.248Z,2.93
2016-10-31T01:16:42.240Z,2.93
2016-10-31T01:17:42.229Z,2.87
2016-10-31T01:18:42.246Z,2.97
2016-10-31T01:19:42.202Z,2.95
2016-10-31T01:20:42.221Z,2.9
2016-10-31T01:21:57.085Z,3.02
2016-10-31T01:22:42.660Z,3.02
2016-10-31T01:23:42.158Z,2.99
2016-10-31T01:25:42.118Z,2.93
2016-10-31T01:26:42.147Z,2.87
2016-10-31T01:27:42.100Z,2.97
2016-10-31T01:28:42.086Z,2.97
2016-10-31T01:29:42.079Z,2.93
2016-10-31T01:30:43.315Z,2.92
2016-10-31T01:31:43.088Z,3
2016-10-31T01:32:42.335Z,2.81
2016-10-31T01:33:42.026Z,2.87
2016-10-31T01:34:42.008Z,2.87
2016-10-31T01:35:41.998Z,2.93
2016-10-31T01:36:42.022Z,2.9
2016-10-31T01:37:41.969Z,2.93
2016-10-31T01:38:41.955Z,2.93
2016-10-31T01:39:41.944Z,2.85
2016-10-31T01:40:41.933Z,2.99
2016-10-31T01:41:41.921Z,2.84
2016-10-31T01:42:41.905Z,2.84
2016-10-31T01:43:41.894Z,2.85
2016-10-31T01:44:41.880Z,2.85
2016-10-31T01:45:42.627Z,2.9
2016-10-31T01:46:42.607Z,2.75
2016-10-31T01:47:42.449Z,2.87
2016-10-31T01:48:42.918Z,2.85
2016-10-31T01:49:41.824Z,2.82
2016-10-31T01:50:41.808Z,2.85
2016-10-31T01:51:42.464Z,2.82
2016-10-31T01:52:41.783Z,2.85
2016-10-31T01:53:41.770Z,2.82
2016-10-31T01:54:43.161Z,2.81
2016-10-31T01:55:43.411Z,2.79
2016-10-31T01:56:42.484Z,2.84
2016-10-31T01:57:41.709Z,2.85
2016-10-31T01:58:42.409Z,2.81
2016-10-31T01:59:42.907Z,2.75
2016-10-31T02:00:41.676Z,2.89
2016-10-31T02:01:41.656Z,2.85
2016-10-31T02:02:41.644Z,2.87
2016-10-31T02:03:41.637Z,2.85
2016-10-31T02:04:41.621Z,2.82
2016-10-31T02:05:41.608Z,2.78
2016-10-31T02:06:41.593Z,2.78
2016-10-31T02:07:41.585Z,2.82
2016-10-31T02:08:41.567Z,2.82
2016-10-31T02:09:41.558Z,2.78
2016-10-31T02:10:41.541Z,2.79
2016-10-31T02:11:41.531Z,2.81
2016-10-31T02:12:41.526Z,2.84
2016-10-31T02:13:41.503Z,2.85
2016-10-31T02:14:41.490Z,2.82
2016-10-31T02:15:41.486Z,2.92
2016-10-31T02:16:41.510Z,2.87
2016-10-31T02:17:41.447Z,2.85
2016-10-31T02:18:41.434Z,2.82
2016-10-31T02:19:41.423Z,2.78
2016-10-31T02:20:41.418Z,2.84
2016-10-31T02:21:41.404Z,2.85
2016-10-31T02:22:41.392Z,2.84
2016-10-31T02:23:41.375Z,2.85
2016-10-31T02:24:41.368Z,2.85
2016-10-31T02:25:41.352Z,2.84
2016-10-31T02:26:41.343Z,2.81
2016-10-31T02:27:41.318Z,2.79
2016-10-31T02:28:41.313Z,2.82
2016-10-31T02:29:41.304Z,2.82
2016-10-31T02:30:41.323Z,2.84
2016-10-31T02:31:41.272Z,2.85
2016-10-31T02:32:41.261Z,2.84
2016-10-31T02:33:41.245Z,2.78
2016-10-31T02:34:41.237Z,2.85
2016-10-31T02:35:41.232Z,2.74
2016-10-31T02:36:41.250Z,2.85
2016-10-31T02:37:41.195Z,2.81
2016-10-31T02:38:41.185Z,2.82
2016-10-31T02:39:41.974Z,2.82
2016-10-31T02:40:56.070Z,2.79
2016-10-31T02:41:41.151Z,2.82
2016-10-31T02:42:41.133Z,2.75
2016-10-31T02:43:41.127Z,2.69
2016-10-31T02:44:41.207Z,2.75
2016-10-31T02:45:41.547Z,2.63
2016-10-31T02:46:41.332Z,2.63
2016-10-31T02:47:41.072Z,2.72
2016-10-31T02:48:41.060Z,2.74
2016-10-31T02:49:41.245Z,2.72
2016-10-31T02:50:41.129Z,2.75
2016-10-31T02:51:55.979Z,2.71
2016-10-31T02:52:42.263Z,2.74
2016-10-31T02:53:41.211Z,2.69
2016-10-31T02:54:41.776Z,2.69
2016-10-31T02:55:40.968Z,2.69
2016-10-31T02:56:40.959Z,2.66
2016-10-31T02:57:40.938Z,2.72
2016-10-31T02:58:40.935Z,2.63
2016-10-31T02:59:40.915Z,2.69
2016-10-31T03:00:40.906Z,2.64
2016-10-31T03:01:40.890Z,2.6
2016-10-31T03:02:40.881Z,2.6
2016-10-31T03:05:40.840Z,2.57
2016-10-31T03:06:42.081Z,2.57
2016-10-31T03:07:41.259Z,2.66
2016-10-31T03:08:41.537Z,2.6
2016-10-31T03:09:40.796Z,2.57
2016-10-31T03:10:41.031Z,2.57
2016-10-31T03:11:40.766Z,2.57
2016-10-31T03:12:41.233Z,2.61
2016-10-31T03:13:42.612Z,2.57
2016-10-31T03:14:40.722Z,2.63
2016-10-31T03:15:40.716Z,2.57
2016-10-31T03:16:40.699Z,2.6
2016-10-31T03:17:40.812Z,2.59
2016-10-31T03:18:41.188Z,2.67
2016-10-31T03:19:41.121Z,2.63
2016-10-31T03:20:40.683Z,2.59
2016-10-31T03:21:40.632Z,2.61
2016-10-31T03:22:40.620Z,2.63
2016-10-31T03:23:40.606Z,2.57
2016-10-31T03:24:40.599Z,2.64
2016-10-31T03:25:40.581Z,2.61
2016-10-31T03:26:40.569Z,2.56
2016-10-31T03:27:40.555Z,2.6
2016-10-31T03:28:40.540Z,2.57
2016-10-31T03:29:40.528Z,2.59
2016-10-31T03:30:40.510Z,2.56
2016-10-31T03:31:40.504Z,2.54
2016-10-31T03:32:40.492Z,2.56
2016-10-31T03:33:40.480Z,2.61
2016-10-31T03:34:40.464Z,2.49
2016-10-31T03:35:40.453Z,2.59
2016-10-31T03:36:40.441Z,2.6
2016-10-31T03:37:40.428Z,2.6
2016-10-31T03:38:40.418Z,2.63
2016-10-31T03:39:40.398Z,2.53
2016-10-31T03:40:40.386Z,2.57
2016-10-31T03:41:40.378Z,2.59
2016-10-31T03:42:40.359Z,2.57
2016-10-31T03:43:40.344Z,2.49
2016-10-31T03:44:40.341Z,2.53
2016-10-31T03:45:40.324Z,2.53
2016-10-31T03:46:40.307Z,2.49
2016-10-31T03:47:40.294Z,2.52
2016-10-31T03:48:40.286Z,2.6
2016-10-31T03:49:40.276Z,2.54
2016-10-31T03:50:40.252Z,2.54
2016-10-31T03:51:40.251Z,2.52
2016-10-31T03:52:40.270Z,2.52
2016-10-31T03:53:40.216Z,2.52
2016-10-31T03:54:40.207Z,2.38
2016-10-31T03:55:40.227Z,2.41
2016-10-31T03:56:40.180Z,2.38
2016-10-31T03:57:40.168Z,2.54
2016-10-31T03:58:40.252Z,2.48
2016-10-31T03:59:40.642Z,2.53
2016-10-31T04:00:40.277Z,2.43
2016-10-31T04:01:40.321Z,2.43
2016-10-31T04:02:40.452Z,2.46
2016-10-31T04:03:40.091Z,2.45
2016-10-31T04:04:40.079Z,2.48
2016-10-31T04:05:40.066Z,2.45
2016-10-31T04:06:40.047Z,2.39
2016-10-31T04:07:40.442Z,2.41
2016-10-31T04:08:40.025Z,2.42
2016-10-31T04:09:55.420Z,2.41
2016-10-31T04:10:39.998Z,2.42
2016-10-31T04:11:39.979Z,2.39
2016-10-31T04:12:39.977Z,2.53
2016-10-31T04:13:39.965Z,2.39
2016-10-31T04:14:40.044Z,2.48
2016-10-31T04:15:39.931Z,2.45
2016-10-31T04:16:39.916Z,2.39
2016-10-31T04:17:39.904Z,2.41
2016-10-31T04:18:39.901Z,2.53
2016-10-31T04:19:39.888Z,2.42
2016-10-31T04:20:39.863Z,2.42
2016-10-31T04:21:39.858Z,2.42
2016-10-31T04:22:41.366Z,2.41
2016-10-31T04:23:39.832Z,2.41
2016-10-31T04:24:39.811Z,2.36
2016-10-31T04:25:39.804Z,2.38
2016-10-31T04:26:40.701Z,2.41
2016-10-31T04:27:39.779Z,2.41
2016-10-31T04:28:39.762Z,2.36
2016-10-31T04:29:39.781Z,2.39
2016-10-31T04:30:39.733Z,2.41
2016-10-31T04:31:40.003Z,2.46
2016-10-31T04:32:42.314Z,2.49
2016-10-31T04:33:39.692Z,2.42
2016-10-31T04:34:40.260Z,2.38
2016-10-31T04:35:39.700Z,2.38
2016-10-31T04:36:39.655Z,2.46
2016-10-31T04:37:39.646Z,2.39
2016-10-31T04:38:39.626Z,2.39
2016-10-31T04:39:39.618Z,2.35
2016-10-31T04:40:39.605Z,2.34
2016-10-31T04:41:39.599Z,2.38
2016-10-31T04:42:39.576Z,2.39
2016-10-31T04:43:39.568Z,2.36
2016-10-31T04:44:39.556Z,2.35
2016-10-31T04:45:39.540Z,2.35
2016-10-31T04:46:39.523Z,2.39
2016-10-31T04:47:39.512Z,2.35
2016-10-31T04:48:39.503Z,2.41
2016-10-31T04:49:39.533Z,2.42
2016-10-31T04:50:39.476Z,2.38
2016-10-31T04:51:39.458Z,2.41
2016-10-31T04:52:39.448Z,2.35
2016-10-31T04:53:39.439Z,2.39
2016-10-31T04:54:39.418Z,2.42
2016-10-31T04:55:39.407Z,2.52
2016-10-31T04:56:39.398Z,2.36
2016-10-31T04:57:39.378Z,2.49
2016-10-31T04:58:39.368Z,2.53
2016-10-31T04:59:39.365Z,2.57
2016-10-31T05:00:39.345Z,2.56
2016-10-31T05:01:39.369Z,2.6
2016-10-31T05:02:39.316Z,2.67
2016-10-31T05:03:39.306Z,2.72
2016-10-31T05:04:39.293Z,2.71
2016-10-31T05:05:39.274Z,2.78
2016-10-31T05:06:39.266Z,2.82
2016-10-31T05:07:39.255Z,2.87
2016-10-31T05:08:39.240Z,2.77
2016-10-31T05:09:39.231Z,2.89
2016-10-31T05:10:39.216Z,2.93
2016-10-31T05:11:39.199Z,2.93
2016-10-31T05:12:39.180Z,2.95
2016-10-31T05:13:39.175Z,3
2016-10-31T05:14:39.169Z,3.03
2016-10-31T05:15:39.140Z,3.08
2016-10-31T05:16:40.531Z,3.13
2016-10-31T05:17:40.421Z,3.11
2016-10-31T05:18:39.461Z,3.1
2016-10-31T05:19:40.399Z,3.13
2016-10-31T05:20:39.083Z,3.08
2016-10-31T05:21:39.068Z,3.2
2016-10-31T05:22:39.257Z,3.05
2016-10-31T05:23:39.039Z,3.06
2016-10-31T05:24:39.036Z,3.17
2016-10-31T05:25:39.619Z,3.24
2016-10-31T05:26:39.110Z,3.23
2016-10-31T05:27:39.941Z,3.24
2016-10-31T05:28:39.030Z,3.21
2016-10-31T05:29:53.877Z,3.32
2016-10-31T05:30:38.951Z,3.33
2016-10-31T05:31:39.495Z,3.32
2016-10-31T05:32:39.231Z,3.39
2016-10-31T05:33:38.914Z,3.36
2016-10-31T05:34:38.911Z,3.28
2016-10-31T05:35:38.895Z,3.29
2016-10-31T05:36:38.878Z,3.39
2016-10-31T05:37:38.867Z,3.36
2016-10-31T05:38:38.852Z,3.39
2016-10-31T05:39:38.838Z,3.39
2016-10-31T05:41:41.285Z,3.47
2016-10-31T05:42:39.202Z,3.45
2016-10-31T05:43:40.478Z,3.6
2016-10-31T05:44:40.391Z,3.5
2016-10-31T05:45:39.407Z,3.61
2016-10-31T05:46:38.752Z,3.62
2016-10-31T05:47:38.919Z,3.72
2016-10-31T05:48:38.729Z,3.84
2016-10-31T05:49:40.230Z,3.93
2016-10-31T05:50:40.220Z,3.91
2016-10-31T05:51:40.378Z,3.96
2016-10-31T05:52:38.775Z,4.08
2016-10-31T05:53:39.152Z,4.08
2016-10-31T05:54:38.799Z,4.22
2016-10-31T05:55:38.639Z,4.16
2016-10-31T05:56:38.670Z,4.24
2016-10-31T05:57:38.620Z,4.34
2016-10-31T05:58:38.601Z,4.42
2016-10-31T05:59:38.592Z,4.48
2016-10-31T06:00:38.580Z,4.5
2016-10-31T06:01:38.569Z,4.52
2016-10-31T06:02:38.552Z,4.48
2016-10-31T06:03:38.544Z,4.63
2016-10-31T06:04:38.534Z,4.75
2016-10-31T06:05:38.521Z,4.63
2016-10-31T06:06:38.549Z,4.67
2016-10-31T06:07:38.494Z,4.66
2016-10-31T06:08:38.484Z,4.65
2016-10-31T06:09:38.472Z,4.82
2016-10-31T06:10:38.462Z,4.86
2016-10-31T06:11:38.452Z,4.91
2016-10-31T06:12:38.437Z,4.99
2016-10-31T06:13:38.420Z,4.94
2016-10-31T06:14:38.410Z,4.99
2016-10-31T06:15:38.396Z,4.99
2016-10-31T06:16:38.388Z,5.04
2016-10-31T06:17:38.379Z,5.12
2016-10-31T06:18:38.368Z,5.1
2016-10-31T06:19:38.350Z,5.21
2016-10-31T06:20:38.338Z,5.24
2016-10-31T06:21:38.336Z,5.25
2016-10-31T06:22:38.324Z,5.28
2016-10-31T06:23:38.309Z,5.31
2016-10-31T06:24:38.292Z,5.38
2016-10-31T06:25:38.286Z,5.33
2016-10-31T06:26:38.276Z,5.56
2016-10-31T06:27:38.266Z,5.54
2016-10-31T06:28:38.260Z,5.6
2016-10-31T06:29:38.236Z,5.58
2016-10-31T06:30:38.223Z,5.61
2016-10-31T06:31:38.217Z,5.71
2016-10-31T06:32:38.209Z,5.72
2016-10-31T06:33:38.198Z,5.78
2016-10-31T06:34:53.092Z,5.79
2016-10-31T06:36:38.253Z,5.83
2016-10-31T06:37:38.147Z,5.78
2016-10-31T06:38:38.741Z,5.89
2016-10-31T06:39:38.121Z,5.85
2016-10-31T06:40:38.114Z,5.89
2016-10-31T06:41:38.115Z,5.86
2016-10-31T06:42:38.093Z,5.86
2016-10-31T06:43:38.631Z,5.9
2016-10-31T06:44:38.721Z,5.79
2016-10-31T06:45:38.060Z,5.86
2016-10-31T06:46:38.302Z,5.89
2016-10-31T06:47:38.038Z,5.86
2016-10-31T06:48:38.177Z,5.9
2016-10-31T06:49:38.016Z,5.86
2016-10-31T06:50:38.360Z,5.86
2016-10-31T06:51:37.987Z,5.85
2016-10-31T06:52:37.985Z,5.93
2016-10-31T06:53:37.971Z,5.94
2016-10-31T06:54:37.966Z,5.91
2016-10-31T06:55:37.954Z,5.94
2016-10-31T06:56:37.942Z,6.01
2016-10-31T06:57:37.925Z,6.01
2016-10-31T06:59:38.909Z,6.04
2016-10-31T07:00:39.489Z,6.01
2016-10-31T07:01:38.573Z,6
2016-10-31T07:02:39.510Z,5.94
2016-10-31T07:03:37.870Z,6.11
2016-10-31T07:04:37.894Z,6.09
2016-10-31T07:05:37.842Z,6.03
2016-10-31T07:06:37.835Z,6.06
2016-10-31T07:07:38.717Z,6.12
2016-10-31T07:08:39.915Z,6.18
2016-10-31T07:09:37.803Z,6.22
2016-10-31T07:10:38.095Z,6.25
2016-10-31T07:11:38.865Z,6.41
2016-10-31T07:12:37.769Z,6.41
2016-10-31T07:13:37.768Z,6.56
2016-10-31T07:14:37.756Z,6.59
2016-10-31T07:15:37.779Z,6.67
2016-10-31T07:16:37.732Z,6.69
2016-10-31T07:17:37.722Z,6.81
2016-10-31T07:18:37.717Z,6.87
2016-10-31T07:19:37.697Z,6.91
2016-10-31T07:20:37.689Z,6.92
2016-10-31T07:21:37.687Z,7.09
2016-10-31T07:22:37.679Z,7.16
2016-10-31T07:23:37.663Z,7.15
2016-10-31T07:24:37.691Z,7.17
2016-10-31T07:25:37.646Z,7.21
2016-10-31T07:26:37.629Z,7.25
2016-10-31T07:27:37.632Z,7.37
2016-10-31T07:28:37.622Z,7.46
2016-10-31T07:29:37.608Z,7.52
2016-10-31T07:30:37.596Z,7.55
2016-10-31T07:31:37.587Z,7.68
2016-10-31T07:32:37.576Z,7.79
2016-10-31T07:33:37.564Z,7.86
2016-10-31T07:34:37.570Z,8.04
2016-10-31T07:35:37.551Z,8.02
2016-10-31T07:36:37.544Z,8.12
2016-10-31T07:37:37.532Z,8.3
2016-10-31T07:38:37.835Z,8.36
2016-10-31T07:39:37.516Z,8.5
2016-10-31T07:40:37.506Z,8.55
2016-10-31T07:41:37.496Z,8.59
2016-10-31T07:42:37.488Z,8.71
2016-10-31T07:43:37.485Z,8.7
2016-10-31T07:44:37.468Z,8.74
2016-10-31T07:45:37.469Z,8.84
2016-10-31T07:46:37.453Z,8.91
2016-10-31T07:47:37.450Z,8.92
2016-10-31T07:48:37.441Z,8.99
2016-10-31T07:49:37.428Z,9.1
2016-10-31T07:50:37.419Z,9.18
2016-10-31T07:51:37.415Z,9.28
2016-10-31T07:52:38.651Z,9.24
2016-10-31T07:53:39.340Z,9.36
2016-10-31T07:54:38.096Z,9.35
2016-10-31T07:56:37.433Z,9.48
2016-10-31T07:57:37.362Z,9.51
2016-10-31T07:58:37.606Z,9.56
2016-10-31T07:59:37.791Z,9.57
2016-10-31T08:00:37.337Z,9.68
2016-10-31T08:01:37.331Z,9.56
2016-10-31T08:02:38.692Z,9.48
2016-10-31T08:03:38.021Z,9.53
2016-10-31T08:04:38.057Z,9.47
2016-10-31T08:05:37.318Z,9.57
2016-10-31T08:06:37.288Z,9.6
2016-10-31T08:07:37.514Z,9.68
2016-10-31T08:08:37.281Z,9.81
2016-10-31T08:09:37.264Z,9.86
2016-10-31T08:10:37.257Z,9.96
2016-10-31T08:11:37.255Z,10.02
2016-10-31T08:12:37.248Z,10.14
2016-10-31T08:13:37.238Z,10.14
2016-10-31T08:14:37.232Z,10.2
2016-10-31T08:15:37.229Z,10.15
2016-10-31T08:17:40.633Z,10.23
2016-10-31T08:18:38.552Z,10.2
2016-10-31T08:19:38.544Z,10.15
2016-10-31T08:20:37.496Z,10.18
2016-10-31T08:21:37.175Z,10.2
2016-10-31T08:22:37.233Z,10.17
2016-10-31T08:23:37.406Z,10.32
2016-10-31T08:24:37.158Z,10.32
2016-10-31T08:25:37.160Z,10.44
2016-10-31T08:26:38.353Z,10.42
2016-10-31T08:27:37.134Z,10.47
2016-10-31T08:28:37.711Z,10.59
2016-10-31T08:29:37.278Z,10.55
2016-10-31T08:30:37.115Z,10.66
2016-10-31T08:31:37.119Z,10.61
2016-10-31T08:32:37.094Z,10.78
2016-10-31T08:33:37.095Z,10.82
2016-10-31T08:34:37.133Z,10.86
2016-10-31T08:35:37.075Z,10.94
2016-10-31T08:36:37.075Z,11.07
2016-10-31T08:37:37.067Z,11.18
2016-10-31T08:38:37.064Z,11.27
2016-10-31T08:39:37.053Z,11.27
2016-10-31T08:40:37.051Z,11.25
2016-10-31T08:41:37.038Z,11.35
2016-10-31T08:42:37.064Z,11.33
2016-10-31T08:43:37.031Z,11.4
2016-10-31T08:44:37.016Z,11.37
2016-10-31T08:45:37.010Z,11.46
2016-10-31T08:46:37.002Z,11.58
2016-10-31T08:47:37.008Z,11.54
2016-10-31T08:48:36.996Z,11.72
2016-10-31T08:49:37.295Z,11.7
2016-10-31T08:50:36.981Z,11.8
2016-10-31T08:51:37.018Z,11.82
2016-10-31T08:52:36.970Z,11.85
2016-10-31T08:53:36.964Z,11.95
2016-10-31T08:54:36.955Z,11.94
2016-10-31T08:55:36.952Z,11.99
2016-10-31T08:56:36.949Z,11.98
2016-10-31T08:57:36.939Z,12.04
2016-10-31T08:58:37.234Z,12.1
2016-10-31T08:59:36.930Z,12.17
2016-10-31T09:00:36.918Z,12.2
2016-10-31T09:01:36.921Z,12.23
2016-10-31T09:02:36.910Z,12.24
2016-10-31T09:03:36.901Z,12.24
2016-10-31T09:04:36.938Z,12.42
2016-10-31T09:05:36.886Z,12.42
2016-10-31T09:06:36.880Z,12.49
2016-10-31T09:07:36.879Z,12.45
2016-10-31T09:08:36.870Z,12.41
2016-10-31T09:09:36.867Z,12.5
2016-10-31T09:10:36.858Z,12.53
2016-10-31T09:11:37.153Z,12.53
2016-10-31T09:12:36.855Z,12.59
2016-10-31T09:13:37.447Z,12.6
2016-10-31T09:14:36.832Z,12.56
2016-10-31T09:15:36.836Z,12.6
2016-10-31T09:16:37.530Z,12.62
2016-10-31T09:17:36.819Z,12.56
2016-10-31T09:18:36.811Z,12.68
2016-10-31T09:19:36.820Z,12.67
2016-10-31T09:20:37.752Z,12.56
2016-10-31T09:21:37.752Z,12.53
2016-10-31T09:22:36.797Z,12.64
2016-10-31T09:23:38.088Z,12.68
2016-10-31T09:24:36.778Z,12.71
2016-10-31T09:25:37.076Z,12.7
2016-10-31T09:26:37.075Z,12.74
2016-10-31T09:27:36.765Z,12.79
2016-10-31T09:28:36.754Z,12.93
2016-10-31T09:29:36.753Z,12.97
2016-10-31T09:30:36.749Z,13.08
2016-10-31T09:31:36.785Z,13.12
2016-10-31T09:32:36.729Z,13.11
2016-10-31T09:33:36.729Z,13.15
2016-10-31T09:34:36.727Z,13.17
2016-10-31T09:35:38.752Z,13.11
2016-10-31T09:36:37.842Z,13
2016-10-31T09:37:38.966Z,12.96
2016-10-31T09:38:36.705Z,12.9
2016-10-31T09:39:36.699Z,12.95
2016-10-31T09:40:36.695Z,13
2016-10-31T09:41:36.683Z,13.07
2016-10-31T09:42:36.689Z,13.14
2016-10-31T09:43:36.718Z,13.11
2016-10-31T09:44:38.183Z,13.11
2016-10-31T09:45:38.242Z,13.03
2016-10-31T09:46:38.111Z,13.04
2016-10-31T09:47:36.656Z,13.01
2016-10-31T09:48:36.650Z,12.93
2016-10-31T09:49:36.663Z,13.04
2016-10-31T09:50:36.658Z,13.1
2016-10-31T09:51:36.639Z,13.26
2016-10-31T09:52:36.633Z,13.32
2016-10-31T09:53:36.621Z,13.38
2016-10-31T09:54:36.624Z,13.63
2016-10-31T09:55:36.613Z,13.69
2016-10-31T09:56:36.953Z,13.89
2016-10-31T09:57:36.602Z,13.91
2016-10-31T09:58:36.601Z,14.04
2016-10-31T09:59:36.591Z,14.2
2016-10-31T10:00:36.596Z,14.27
2016-10-31T10:01:36.588Z,14.39
2016-10-31T10:02:36.883Z,14.45
2016-10-31T10:03:36.580Z,14.47
2016-10-31T10:04:36.574Z,14.43
2016-10-31T10:05:36.568Z,14.47
2016-10-31T10:06:36.561Z,14.5
2016-10-31T10:07:36.560Z,14.45
2016-10-31T10:08:36.560Z,14.47
2016-10-31T10:09:36.554Z,14.51
2016-10-31T10:10:36.550Z,14.47
2016-10-31T10:11:36.565Z,14.46
2016-10-31T10:12:36.542Z,14.39
2016-10-31T10:13:36.536Z,14.24
2016-10-31T10:14:36.534Z,14.24
2016-10-31T10:15:36.522Z,14.2
2016-10-31T10:16:36.526Z,14.29
2016-10-31T10:17:36.517Z,14.32
2016-10-31T10:18:36.518Z,14.24
2016-10-31T10:19:36.512Z,14.27
2016-10-31T10:20:36.509Z,14.28
2016-10-31T10:21:36.503Z,14.36
2016-10-31T10:22:36.503Z,14.37
2016-10-31T10:23:36.916Z,14.37
2016-10-31T10:24:36.491Z,14.47
2016-10-31T10:25:36.485Z,14.43
2016-10-31T10:26:36.977Z,14.4
2016-10-31T10:27:36.480Z,14.42
2016-10-31T10:28:36.475Z,14.47
2016-10-31T10:29:37.077Z,14.51
2016-10-31T10:30:37.623Z,14.57
2016-10-31T10:31:51.677Z,14.52
2016-10-31T10:33:36.908Z,14.64
2016-10-31T10:34:36.453Z,14.64
2016-10-31T10:35:36.456Z,14.72
2016-10-31T10:36:36.442Z,14.69
2016-10-31T10:37:36.446Z,14.61
2016-10-31T10:38:38.935Z,14.68
2016-10-31T10:39:36.876Z,14.61
2016-10-31T10:40:37.129Z,14.68
2016-10-31T10:41:36.478Z,14.61
2016-10-31T10:42:36.718Z,14.55
2016-10-31T10:43:36.418Z,14.55
2016-10-31T10:44:36.413Z,14.55
2016-10-31T10:45:36.415Z,14.6
2016-10-31T10:46:36.404Z,14.65
2016-10-31T10:47:36.413Z,14.68
2016-10-31T10:48:36.400Z,14.73
2016-10-31T10:49:36.402Z,14.72
2016-10-31T10:50:36.392Z,14.8
2016-10-31T10:51:36.392Z,14.77
2016-10-31T10:52:36.391Z,14.8
2016-10-31T10:53:37.011Z,14.81
2016-10-31T10:54:37.221Z,14.83
2016-10-31T10:55:36.373Z,14.88
2016-10-31T10:56:37.943Z,14.89
2016-10-31T10:57:36.359Z,14.88
2016-10-31T10:58:36.352Z,14.84
2016-10-31T10:59:36.351Z,14.95
2016-10-31T11:00:36.513Z,15.03
2016-10-31T11:01:36.337Z,14.95
2016-10-31T11:02:37.015Z,14.95
2016-10-31T11:03:37.748Z,14.98
2016-10-31T11:04:38.377Z,14.99
2016-10-31T11:05:37.460Z,15.02
2016-10-31T11:06:36.329Z,14.83
2016-10-31T11:07:36.430Z,14.78
2016-10-31T11:08:36.321Z,14.73
2016-10-31T11:09:36.315Z,14.78
2016-10-31T11:10:36.444Z,14.75
2016-10-31T11:11:36.305Z,14.78
2016-10-31T11:12:36.299Z,14.84
2016-10-31T11:13:36.297Z,14.84
2016-10-31T11:14:36.297Z,14.84
2016-10-31T11:15:36.296Z,14.89
2016-10-31T11:16:36.292Z,14.83
2016-10-31T11:17:36.285Z,14.78
2016-10-31T11:18:36.274Z,14.84
2016-10-31T11:19:36.579Z,14.94
2016-10-31T11:20:36.270Z,14.94
2016-10-31T11:21:36.270Z,14.7
2016-10-31T11:22:36.261Z,14.69
2016-10-31T11:23:36.257Z,14.64
2016-10-31T11:24:36.254Z,14.52
2016-10-31T11:25:36.252Z,14.43
2016-10-31T11:26:36.239Z,14.39
2016-10-31T11:27:36.242Z,14.37
2016-10-31T11:28:36.234Z,14.27
2016-10-31T11:29:36.233Z,14.42
2016-10-31T11:30:36.235Z,14.47
2016-10-31T11:31:36.228Z,14.42
2016-10-31T11:32:36.221Z,14.52
2016-10-31T11:33:36.223Z,14.5
2016-10-31T11:34:36.214Z,14.46
2016-10-31T11:35:36.222Z,14.47
2016-10-31T11:36:36.208Z,14.45
2016-10-31T11:37:36.204Z,14.52
2016-10-31T11:38:36.193Z,14.6
2016-10-31T11:39:36.199Z,14.55
2016-10-31T11:40:36.194Z,14.51
2016-10-31T11:41:36.184Z,14.64
2016-10-31T11:42:36.178Z,14.51
2016-10-31T11:43:36.481Z,14.64
2016-10-31T11:44:36.190Z,14.77
2016-10-31T11:45:36.174Z,14.84
2016-10-31T11:46:36.170Z,14.88
2016-10-31T11:47:36.211Z,15.01
2016-10-31T11:48:36.709Z,15.1
2016-10-31T11:49:36.771Z,15.16
2016-10-31T11:50:36.655Z,15.03
2016-10-31T11:51:36.151Z,15.11
2016-10-31T11:52:36.148Z,15.1
2016-10-31T11:53:36.175Z,15.23
2016-10-31T11:54:36.140Z,15.14
2016-10-31T11:55:36.135Z,15.17
2016-10-31T11:56:37.277Z,15.16
2016-10-31T11:57:36.783Z,15.16
2016-10-31T11:58:36.670Z,15.17
2016-10-31T11:59:36.416Z,15.16
2016-10-31T12:00:37.459Z,15.06
2016-10-31T12:01:36.361Z,15.03
2016-10-31T12:02:36.104Z,14.94
2016-10-31T12:03:36.098Z,14.89
2016-10-31T12:04:36.100Z,14.8
2016-10-31T12:05:36.096Z,14.84
2016-10-31T12:06:36.093Z,14.86
2016-10-31T12:07:36.085Z,14.78
2016-10-31T12:08:36.079Z,14.86
2016-10-31T12:09:36.125Z,14.84
2016-10-31T12:10:36.078Z,14.94
2016-10-31T12:11:36.951Z,14.98
2016-10-31T12:12:36.111Z,15.03
2016-10-31T12:13:36.066Z,15.11
2016-10-31T12:14:36.059Z,15.13
2016-10-31T12:15:36.057Z,15.21
2016-10-31T12:16:36.052Z,15.23
2016-10-31T12:17:36.214Z,15.35
2016-10-31T12:18:36.042Z,15.38
2016-10-31T12:19:36.042Z,15.36
2016-10-31T12:21:36.660Z,15.35
2016-10-31T12:22:38.349Z,15.25
2016-10-31T12:23:38.473Z,15.25
2016-10-31T12:24:36.020Z,15.19
2016-10-31T12:25:36.369Z,15.23
2016-10-31T12:26:36.015Z,15.16
2016-10-31T12:27:36.010Z,15.23
2016-10-31T12:28:36.001Z,15.25
2016-10-31T12:29:36.000Z,15.25
2016-10-31T12:30:35.997Z,15.31
2016-10-31T12:31:35.999Z,15.35
2016-10-31T12:32:35.995Z,15.34
2016-10-31T12:33:35.989Z,15.36
2016-10-31T12:34:35.989Z,15.46
2016-10-31T12:35:35.980Z,15.39
2016-10-31T12:36:36.286Z,15.41
2016-10-31T12:37:35.982Z,15.41
2016-10-31T12:38:35.976Z,15.41
2016-10-31T12:39:35.963Z,15.39
2016-10-31T12:40:35.971Z,15.44
2016-10-31T12:41:35.957Z,15.49
2016-10-31T12:42:35.947Z,15.38
2016-10-31T12:43:36.244Z,15.43
2016-10-31T12:44:35.980Z,15.39
2016-10-31T12:45:35.939Z,15.38
2016-10-31T12:46:35.946Z,15.34
2016-10-31T12:47:35.939Z,15.31
2016-10-31T12:48:35.929Z,15.34
2016-10-31T12:49:36.266Z,15.28
2016-10-31T12:50:35.922Z,15.23
2016-10-31T12:51:35.923Z,15.19
2016-10-31T12:52:35.910Z,15.11
2016-10-31T12:53:35.917Z,15.01
2016-10-31T12:54:35.912Z,15.03
2016-10-31T12:55:35.902Z,15.01
2016-10-31T12:56:35.903Z,15.02
2016-10-31T12:57:35.894Z,14.94
2016-10-31T12:58:35.893Z,15.01
2016-10-31T12:59:35.882Z,14.94
2016-10-31T13:00:35.886Z,14.95
2016-10-31T13:01:35.883Z,14.94
2016-10-31T13:02:35.870Z,14.94
2016-10-31T13:03:35.873Z,14.86
2016-10-31T13:04:35.869Z,14.8
2016-10-31T13:05:35.864Z,14.75
2016-10-31T13:06:36.361Z,14.73
2016-10-31T13:07:35.951Z,14.64
2016-10-31T13:08:36.148Z,14.62
2016-10-31T13:09:36.642Z,14.64
2016-10-31T13:10:36.141Z,14.69
2016-10-31T13:11:35.837Z,14.64
2016-10-31T13:12:35.827Z,14.77
2016-10-31T13:13:35.826Z,14.72
2016-10-31T13:14:35.829Z,14.75
2016-10-31T13:15:36.718Z,14.62
2016-10-31T13:16:36.467Z,14.58
2016-10-31T13:17:36.011Z,14.52
2016-10-31T13:18:36.418Z,14.58
2016-10-31T13:19:36.103Z,14.5
2016-10-31T13:20:36.092Z,14.52
2016-10-31T13:21:35.790Z,14.57
2016-10-31T13:22:35.785Z,14.5